Florida — WFAF — position and weather

sailwx.info

Track history (hours):
 
Tides and Currents Weather Stations Pressure Air Temp Water Temp Dewpoint Dewpoint Depression Visibility Wind Speed Wind Dir Waves Ship Positions

Florida

Owner: Crowley Petroleum Services, Inc., Jacksonville, FL. More information available from US FCC via Universal Licensing System and Coast Guard Vessel Documentation Center.

Last reported at 2018-Jun-14 07:29 UTC. Time now 2018-Jun-17 22:10 UTC.
Position N 48°29' W 126°26'.

Length 182 m; draft 11.4 m.

Type: Tanker. MMSI: 366855000.

Date/timePositionNaut miles runAvg speedWind from/ knotsBaromVisibWave heightAir tempDewpointWater temp
2018-Jun-14 07:29N 48°29' W 126°26'714.2
2018-Jun-14 07:00N 48°29' W 126°16'714.0
2018-Jun-14 06:30N 48°29' W 126°05'714.0
2018-Jun-14 06:00N 48°30' W 125°55'713.8
2018-Jun-14 05:30N 48°30' W 125°44'713.8
2018-Jun-14 05:00N 48°30' W 125°34'714.3
2018-Jun-14 04:30N 48°31' W 125°23'714.6
2018-Jun-14 04:00N 48°31' W 125°12'715.0
2018-Jun-14 03:30N 48°31' W 125°01'815.2
2018-Jun-14 03:00N 48°31' W 124°49'714.5
2018-Jun-14 02:30N 48°29' W 124°39'714.6
2018-Jun-14 02:00N 48°27' W 124°28'714.1
2018-Jun-14 01:30N 48°24' W 124°19'713.4
2018-Jun-14 01:00N 48°21' W 124°09'713.1
2018-Jun-14 00:30N 48°19' W 124°00'712.8
2018-Jun-13 23:59N 48°17' W 123°51'30 9.4
2018-Jun-13 20:50N 48°17' W 123°06'511.2
2018-Jun-13 20:26N 48°19' W 123°01'512.1
2018-Jun-13 20:00N 48°22' W 122°54'510.4
2018-Jun-13 19:29N 48°25' W 122°47'510.8
2018-Jun-13 19:00N 48°30' W 122°44'510.3
2018-Jun-13 18:30N 48°34' W 122°40'4 7.9
2018-Jun-13 18:00N 48°37' W 122°36'1 1.9
2018-Jun-13 17:30N 48°37' W 122°35'1 2.5
2018-Jun-13 17:00N 48°38' W 122°33'1 2.8
2018-Jun-13 16:30N 48°37' W 122°35'3 5.7
2018-Jun-13 16:00N 48°34' W 122°35'3 5.9
2018-Jun-13 15:30N 48°31' W 122°34'0 0.6
2018-Jun-13 14:58N 48°31' W 122°34'0 0.0
2018-Jun-13 14:28N 48°31' W 122°34'0 0.0
2018-Jun-13 13:58N 48°31' W 122°34'0 0.0
2018-Jun-13 13:28N 48°31' W 122°34'0 0.0
2018-Jun-13 12:58N 48°31' W 122°34'0 0.0
2018-Jun-13 12:28N 48°31' W 122°34'0 0.0
2018-Jun-13 11:58N 48°31' W 122°34'0 0.0
2018-Jun-13 11:25N 48°31' W 122°34'0 0.0
2018-Jun-13 10:58N 48°31' W 122°34'0 0.0
2018-Jun-13 10:28N 48°31' W 122°34'0 0.0
2018-Jun-13 09:58N 48°31' W 122°34'0 0.0
2018-Jun-13 09:28N 48°31' W 122°34'0 0.0
2018-Jun-13 08:58N 48°31' W 122°34'0 0.0
2018-Jun-13 08:28N 48°31' W 122°34'0 0.0
2018-Jun-13 07:58N 48°31' W 122°34'0 0.0
2018-Jun-13 07:28N 48°31' W 122°34'0 0.0
2018-Jun-13 06:58N 48°31' W 122°34'0 0.0
2018-Jun-13 06:28N 48°31' W 122°34'0 0.0
2018-Jun-13 05:58N 48°31' W 122°34'0 0.0
2018-Jun-13 05:28N 48°31' W 122°34'0 0.0
2018-Jun-13 04:58N 48°31' W 122°34'0 0.0
2018-Jun-13 04:28N 48°31' W 122°34'0 0.0
2018-Jun-13 03:58N 48°31' W 122°34'0 0.0
2018-Jun-13 03:28N 48°31' W 122°34'0 0.0
2018-Jun-13 02:58N 48°31' W 122°34'0 0.0
2018-Jun-13 02:28N 48°31' W 122°34'0 0.0
2018-Jun-13 01:58N 48°31' W 122°34'0 0.0
2018-Jun-13 01:28N 48°31' W 122°34'0 0.0
2018-Jun-13 00:58N 48°31' W 122°34'0 0.0
2018-Jun-13 00:28N 48°31' W 122°34'0 0.0
2018-Jun-12 23:58N 48°31' W 122°34'0 0.0
2018-Jun-12 23:28N 48°31' W 122°34'0 0.0
2018-Jun-12 22:58N 48°31' W 122°34'0 0.0
2018-Jun-12 22:28N 48°31' W 122°34'0 0.0
2018-Jun-12 21:58N 48°31' W 122°34'0 0.0
2018-Jun-12 21:28N 48°31' W 122°34'0 0.0
2018-Jun-12 20:58N 48°31' W 122°34'0 0.0
2018-Jun-12 20:28N 48°31' W 122°34'0 0.0
2018-Jun-12 19:58N 48°31' W 122°34'0 0.0
2018-Jun-12 19:28N 48°31' W 122°34'0 0.0
2018-Jun-12 18:58N 48°31' W 122°34'0 0.0
2018-Jun-12 18:28N 48°31' W 122°34'0 0.0
2018-Jun-12 17:58N 48°31' W 122°34'0 0.0
2018-Jun-12 17:28N 48°31' W 122°34'0 0.0
2018-Jun-12 16:58N 48°31' W 122°34'0 0.0
2018-Jun-12 16:25N 48°31' W 122°34'0 0.0
2018-Jun-12 15:58N 48°31' W 122°34'0 0.0
2018-Jun-12 15:28N 48°31' W 122°34'0 0.0
2018-Jun-12 14:58N 48°31' W 122°34'0 0.0
2018-Jun-12 14:28N 48°31' W 122°34'0 0.0
2018-Jun-12 13:55N 48°31' W 122°34'0 0.0
2018-Jun-12 13:28N 48°31' W 122°34'0 0.0
2018-Jun-12 12:58N 48°31' W 122°34'0 0.0
2018-Jun-12 12:28N 48°31' W 122°34'0 0.0
2018-Jun-12 11:58N 48°31' W 122°34'0 0.0
2018-Jun-12 11:28N 48°31' W 122°34'0 0.0
2018-Jun-12 10:58N 48°31' W 122°34'0 0.0
2018-Jun-12 10:28N 48°31' W 122°34'0 0.0
2018-Jun-12 09:58N 48°31' W 122°34'0 0.0
2018-Jun-12 09:28N 48°31' W 122°34'0 0.0
2018-Jun-12 08:58N 48°31' W 122°34'0 0.0
2018-Jun-12 08:28N 48°31' W 122°34'0 0.0
2018-Jun-12 07:58N 48°31' W 122°34'0 0.0
2018-Jun-12 07:28N 48°31' W 122°34'0 0.0
2018-Jun-12 06:58N 48°31' W 122°34'0 0.0
2018-Jun-12 06:28N 48°31' W 122°34'0 0.0
2018-Jun-12 05:58N 48°31' W 122°34'0 0.0
2018-Jun-12 05:28N 48°31' W 122°34'0 0.0
2018-Jun-12 04:58N 48°31' W 122°34'0 0.0
2018-Jun-12 04:28N 48°31' W 122°34'0 0.0
2018-Jun-12 03:58N 48°31' W 122°34'0 0.0
2018-Jun-12 03:25N 48°31' W 122°34'0 0.3
2018-Jun-12 03:00N 48°31' W 122°34'1 1.1
2018-Jun-12 02:30N 48°31' W 122°34'1 1.0
2018-Jun-12 02:00N 48°31' W 122°33'0 0.0
2018-Jun-12 01:30N 48°31' W 122°33'0 0.1
2018-Jun-12 01:00N 48°31' W 122°33'0 0.0
2018-Jun-12 00:30N 48°31' W 122°33'0 0.1
2018-Jun-12 00:00N 48°31' W 122°33'0 0.1
2018-Jun-11 23:30N 48°31' W 122°33'0 0.0
2018-Jun-11 23:00N 48°31' W 122°33'0 0.0
2018-Jun-11 22:30N 48°31' W 122°33'0 0.2
2018-Jun-11 22:00N 48°31' W 122°34'0 0.1
2018-Jun-11 21:30N 48°31' W 122°34'0 0.0
2018-Jun-11 21:00N 48°31' W 122°34'0 0.0
2018-Jun-11 20:30N 48°31' W 122°34'0 0.1
2018-Jun-11 20:00N 48°31' W 122°34'0 0.1
2018-Jun-11 19:30N 48°31' W 122°34'0 0.0
2018-Jun-11 19:00N 48°31' W 122°34'0 0.1
2018-Jun-11 18:30N 48°31' W 122°34'0 0.0
2018-Jun-11 18:00N 48°31' W 122°34'0 0.0
2018-Jun-11 17:30N 48°31' W 122°34'0 0.1
2018-Jun-11 17:00N 48°31' W 122°34'0 0.0
2018-Jun-11 16:30N 48°31' W 122°34'0 0.0
2018-Jun-11 16:00N 48°31' W 122°34'0 0.1
2018-Jun-11 15:30N 48°31' W 122°34'0 0.0
2018-Jun-11 14:54N 48°31' W 122°34'0 0.0
2018-Jun-11 14:30N 48°31' W 122°34'0 0.0
2018-Jun-11 14:00N 48°31' W 122°34'0 0.1
2018-Jun-11 13:30N 48°31' W 122°34'0 0.1
2018-Jun-11 13:00N 48°31' W 122°34'0 0.1
2018-Jun-11 12:30N 48°31' W 122°34'0 0.1
2018-Jun-11 12:00N 48°31' W 122°34'0 0.0
2018-Jun-11 11:30N 48°31' W 122°34'0 0.0
2018-Jun-11 11:00N 48°31' W 122°34'0 0.0
2018-Jun-11 10:30N 48°31' W 122°34'0 0.1
2018-Jun-11 10:00N 48°31' W 122°34'0 0.1
2018-Jun-11 09:30N 48°31' W 122°34'0 0.0
2018-Jun-11 09:00N 48°31' W 122°34'0 0.0
2018-Jun-11 08:30N 48°31' W 122°34'0 0.0
2018-Jun-11 08:00N 48°31' W 122°34'0 0.0
2018-Jun-11 07:30N 48°31' W 122°34'0 0.1
2018-Jun-11 07:00N 48°31' W 122°34'0 0.0
2018-Jun-11 06:30N 48°31' W 122°34'0 0.1
2018-Jun-11 06:00N 48°31' W 122°34'0 0.0
2018-Jun-11 05:30N 48°31' W 122°34'0 0.0
2018-Jun-11 05:00N 48°31' W 122°34'0 0.1
2018-Jun-11 04:30N 48°31' W 122°34'0 0.0
2018-Jun-11 04:00N 48°31' W 122°34'0 0.0
2018-Jun-11 03:30N 48°31' W 122°34'0 0.0
2018-Jun-11 03:00N 48°31' W 122°34'0 0.2
2018-Jun-11 02:30N 48°31' W 122°33'0 0.1
2018-Jun-11 02:00N 48°31' W 122°34'0 0.1
2018-Jun-11 01:30N 48°31' W 122°34'0 0.2
2018-Jun-11 01:00N 48°31' W 122°33'0 0.0
2018-Jun-11 00:30N 48°31' W 122°33'0 0.0
2018-Jun-11 00:00N 48°31' W 122°33'0 0.1
2018-Jun-10 23:30N 48°31' W 122°33'0 0.0
2018-Jun-10 23:00N 48°31' W 122°33'0 0.3
2018-Jun-10 22:30N 48°31' W 122°34'0 0.1
2018-Jun-10 22:00N 48°31' W 122°34'0 0.1
2018-Jun-10 21:30N 48°31' W 122°34'0 0.1
2018-Jun-10 21:00N 48°31' W 122°34'0 0.1
2018-Jun-10 20:30N 48°31' W 122°33'0 0.1
2018-Jun-10 20:00N 48°31' W 122°34'0 0.1
2018-Jun-10 19:30N 48°31' W 122°34'0 0.1
2018-Jun-10 19:00N 48°31' W 122°34'0 0.1
2018-Jun-10 18:30N 48°31' W 122°34'0 0.0
2018-Jun-10 18:00N 48°31' W 122°34'0 0.1
2018-Jun-10 17:30N 48°31' W 122°34'0 0.0
2018-Jun-10 17:00N 48°31' W 122°34'0 0.0
2018-Jun-10 16:30N 48°31' W 122°34'0 0.1
2018-Jun-10 16:00N 48°31' W 122°34'0 0.0
2018-Jun-10 15:30N 48°31' W 122°34'0 0.0
2018-Jun-10 15:00N 48°31' W 122°34'0 0.0
2018-Jun-10 14:30N 48°31' W 122°34'0 0.0
2018-Jun-10 13:30N 48°31' W 122°34'0 0.1
2018-Jun-10 13:00N 48°31' W 122°34'0 0.0
2018-Jun-10 12:30N 48°31' W 122°34'0 0.1
2018-Jun-10 12:00N 48°31' W 122°34'0 0.1
2018-Jun-10 11:30N 48°31' W 122°34'0 0.3
2018-Jun-10 11:00N 48°31' W 122°33'0 0.1
2018-Jun-10 10:30N 48°31' W 122°33'0 0.0
2018-Jun-10 10:00N 48°31' W 122°33'0 0.0
2018-Jun-10 09:30N 48°31' W 122°33'0 0.1
2018-Jun-10 09:00N 48°31' W 122°33'0 0.0
2018-Jun-10 08:30N 48°31' W 122°33'0 0.0
2018-Jun-10 08:00N 48°31' W 122°33'0 0.0
2018-Jun-10 07:30N 48°31' W 122°33'0 0.0
2018-Jun-10 07:00N 48°31' W 122°33'0 0.0
2018-Jun-10 06:30N 48°31' W 122°33'0 0.1
2018-Jun-10 06:00N 48°31' W 122°33'0 0.0
2018-Jun-10 05:30N 48°31' W 122°33'0 0.0
2018-Jun-10 05:00N 48°31' W 122°33'0 0.1
2018-Jun-10 04:30N 48°31' W 122°33'0 0.1
2018-Jun-10 04:00N 48°31' W 122°33'0 0.0
2018-Jun-10 03:30N 48°31' W 122°33'0 0.1
2018-Jun-10 03:00N 48°31' W 122°34'0 0.0
2018-Jun-10 02:30N 48°31' W 122°34'0 0.1
2018-Jun-10 02:00N 48°31' W 122°34'0 0.1
2018-Jun-10 01:30N 48°31' W 122°34'0 0.1
2018-Jun-10 01:00N 48°31' W 122°33'0 0.0
2018-Jun-10 00:30N 48°31' W 122°33'0 0.0
2018-Jun-10 00:00N 48°31' W 122°33'0 0.0
2018-Jun-09 23:30N 48°31' W 122°33'0 0.0
2018-Jun-09 23:00N 48°31' W 122°33'0 0.1
2018-Jun-09 22:30N 48°31' W 122°34'0 0.1
2018-Jun-09 22:00N 48°31' W 122°33'0 0.0
2018-Jun-09 21:30N 48°31' W 122°33'0 0.0
2018-Jun-09 21:00N 48°31' W 122°33'0 0.1
2018-Jun-09 20:30N 48°31' W 122°33'0 0.0
2018-Jun-09 20:00N 48°31' W 122°33'0 0.0
2018-Jun-09 19:30N 48°31' W 122°33'0 0.0
2018-Jun-09 19:00N 48°31' W 122°33'0 0.2
2018-Jun-09 18:30N 48°31' W 122°34'0 0.2
2018-Jun-09 18:00N 48°31' W 122°34'0 0.0
2018-Jun-09 17:30N 48°31' W 122°34'0 0.1
2018-Jun-09 17:00N 48°31' W 122°34'0 0.0
2018-Jun-09 16:30N 48°31' W 122°34'0 0.1
2018-Jun-09 16:00N 48°31' W 122°34'0 0.0
2018-Jun-09 15:00N 48°31' W 122°34'0 0.0
2018-Jun-09 14:30N 48°31' W 122°34'0 0.0
2018-Jun-09 14:00N 48°31' W 122°34'0 0.1
2018-Jun-09 13:30N 48°31' W 122°34'0 0.1
2018-Jun-09 13:00N 48°31' W 122°34'0 0.1
2018-Jun-09 12:30N 48°31' W 122°34'0 0.0
2018-Jun-09 12:00N 48°31' W 122°34'0 0.0
2018-Jun-09 11:30N 48°31' W 122°34'0 0.1
2018-Jun-09 11:00N 48°31' W 122°34'0 0.0
2018-Jun-09 10:30N 48°31' W 122°34'0 0.1
2018-Jun-09 10:00N 48°31' W 122°34'0 0.1
2018-Jun-09 09:30N 48°31' W 122°34'0 0.1
2018-Jun-09 09:00N 48°31' W 122°34'0 0.2
2018-Jun-09 08:30N 48°31' W 122°34'0 0.2
2018-Jun-09 08:00N 48°31' W 122°34'0 0.1
2018-Jun-09 07:30N 48°31' W 122°33'0 0.0
2018-Jun-09 06:57N 48°31' W 122°33'0 0.1
2018-Jun-09 06:30N 48°31' W 122°33'0 0.0
2018-Jun-09 06:00N 48°31' W 122°33'0 0.0
2018-Jun-09 05:30N 48°31' W 122°33'0 0.1
2018-Jun-09 05:00N 48°31' W 122°34'0 0.1
2018-Jun-09 04:30N 48°31' W 122°34'0 0.1
2018-Jun-09 04:00N 48°31' W 122°34'0 0.1
2018-Jun-09 03:30N 48°31' W 122°34'0 0.1
2018-Jun-09 02:59N 48°31' W 122°34'0 0.1
2018-Jun-09 02:30N 48°31' W 122°34'0 0.0
2018-Jun-09 02:00N 48°31' W 122°34'0 0.0
2018-Jun-09 01:30N 48°31' W 122°34'0 0.0
2018-Jun-09 01:00N 48°31' W 122°34'0 0.2
2018-Jun-09 00:30N 48°31' W 122°34'0 0.2
2018-Jun-09 00:00N 48°31' W 122°34'0 0.1
2018-Jun-08 23:30N 48°31' W 122°34'0 0.0
2018-Jun-08 23:00N 48°31' W 122°34'0 0.0
2018-Jun-08 22:27N 48°31' W 122°34'0 0.1
2018-Jun-08 22:00N 48°31' W 122°34'0 0.1
2018-Jun-08 21:27N 48°31' W 122°34'0 0.0
2018-Jun-08 20:48N 48°31' W 122°34'0 0.0
2018-Jun-08 20:30N 48°31' W 122°34'0 0.0
2018-Jun-08 19:57N 48°31' W 122°34'0 0.0
2018-Jun-08 19:27N 48°31' W 122°34'0 0.0
2018-Jun-08 19:00N 48°31' W 122°34'0 0.1
2018-Jun-08 18:30N 48°31' W 122°34'0 0.0
2018-Jun-08 18:00N 48°31' W 122°34'0 0.0
2018-Jun-08 17:30N 48°31' W 122°34'0 0.1
2018-Jun-08 16:57N 48°31' W 122°34'0 0.0
2018-Jun-08 16:24N 48°31' W 122°34'0 0.1
2018-Jun-08 15:57N 48°31' W 122°34'0 0.1
2018-Jun-08 15:30N 48°31' W 122°34'0 0.0
2018-Jun-08 14:57N 48°31' W 122°34'0 0.0
2018-Jun-08 14:27N 48°31' W 122°34'0 0.0
2018-Jun-08 13:56N 48°31' W 122°34'0 0.0
2018-Jun-08 13:30N 48°31' W 122°34'0 0.0
2018-Jun-08 12:56N 48°31' W 122°34'0 0.0
2018-Jun-08 12:30N 48°31' W 122°34'0 0.1
2018-Jun-08 11:54N 48°31' W 122°34'0 0.0
2018-Jun-08 11:30N 48°31' W 122°34'0 0.1
2018-Jun-08 10:51N 48°31' W 122°34'0 0.0
2018-Jun-08 09:51N 48°31' W 122°34'0 0.0
2018-Jun-08 09:21N 48°31' W 122°34'0 0.0
2018-Jun-08 08:57N 48°31' W 122°34'0 0.0
2018-Jun-08 08:21N 48°31' W 122°34'0 0.0
2018-Jun-08 07:57N 48°31' W 122°34'0 0.0
2018-Jun-08 07:30N 48°31' W 122°34'0 0.0
2018-Jun-08 06:50N 48°31' W 122°34'0 0.0
2018-Jun-08 06:27N 48°31' W 122°34'0 0.3
2018-Jun-08 05:59N 48°31' W 122°34'0 0.1
2018-Jun-08 05:24N 48°31' W 122°34'0 0.1
2018-Jun-08 05:00N 48°31' W 122°34'0 0.1
2018-Jun-08 04:29N 48°31' W 122°34'0 0.1
2018-Jun-08 02:35N 48°31' W 122°34'0 0.1
2018-Jun-08 02:26N 48°31' W 122°34'0 0.0
2018-Jun-08 01:59N 48°31' W 122°34'0 0.1
2018-Jun-08 00:38N 48°31' W 122°34'0 0.0
2018-Jun-08 00:23N 48°31' W 122°34'0 0.1
2018-Jun-07 23:30N 48°31' W 122°34'0 0.1
2018-Jun-07 22:59N 48°31' W 122°34'0 0.0
2018-Jun-07 22:30N 48°31' W 122°34'0 0.0
2018-Jun-07 22:00N 48°31' W 122°34'0 0.1
2018-Jun-07 21:29N 48°31' W 122°34'0 0.2
2018-Jun-07 21:00N 48°31' W 122°34'0 0.1
2018-Jun-07 20:30N 48°31' W 122°34'0 0.0
2018-Jun-07 20:00N 48°31' W 122°34'0 0.0
2018-Jun-07 19:30N 48°31' W 122°34'0 0.0
2018-Jun-07 19:00N 48°31' W 122°34'0 0.2
2018-Jun-07 18:30N 48°31' W 122°34'0 0.3
2018-Jun-07 18:00N 48°31' W 122°34'0 0.0
2018-Jun-07 17:29N 48°31' W 122°34'0 0.1
2018-Jun-07 16:59N 48°31' W 122°34'0 0.0
2018-Jun-07 16:29N 48°31' W 122°34'0 0.0
2018-Jun-07 15:59N 48°31' W 122°34'0 0.0
2018-Jun-07 15:29N 48°31' W 122°34'0 0.0
2018-Jun-07 14:59N 48°31' W 122°34'0 0.0
2018-Jun-07 14:30N 48°31' W 122°34'0 0.0
2018-Jun-07 14:00N 48°31' W 122°34'0 0.1
2018-Jun-07 13:30N 48°31' W 122°34'0 0.0
2018-Jun-07 12:59N 48°31' W 122°34'0 0.0
2018-Jun-07 12:29N 48°31' W 122°34'0 0.0
2018-Jun-07 12:00N 48°31' W 122°34'0 0.0
2018-Jun-07 11:29N 48°31' W 122°34'0 0.1
2018-Jun-07 11:00N 48°31' W 122°34'0 0.1
2018-Jun-07 10:30N 48°31' W 122°34'0 0.2
2018-Jun-07 09:59N 48°31' W 122°34'0 0.2
2018-Jun-07 09:29N 48°31' W 122°34'0 0.1
2018-Jun-07 08:59N 48°31' W 122°34'0 0.1
2018-Jun-07 08:29N 48°31' W 122°34'0 0.1
2018-Jun-07 07:59N 48°31' W 122°34'0 0.0
2018-Jun-07 07:29N 48°31' W 122°34'0 0.1
2018-Jun-07 06:59N 48°31' W 122°34'0 0.1
2018-Jun-07 06:29N 48°31' W 122°34'0 0.1
2018-Jun-07 05:59N 48°31' W 122°34'0 0.3
2018-Jun-07 05:29N 48°31' W 122°34'0 0.0
2018-Jun-07 05:00N 48°31' W 122°34'0 0.0
2018-Jun-07 04:29N 48°31' W 122°34'0 0.0
2018-Jun-07 03:59N 48°31' W 122°34'0 0.0
2018-Jun-07 03:29N 48°31' W 122°34'0 0.1
2018-Jun-07 02:59N 48°31' W 122°34'0 0.0
2018-Jun-07 02:30N 48°31' W 122°34'0 0.1
2018-Jun-07 01:59N 48°31' W 122°34'0 0.0
2018-Jun-07 01:29N 48°31' W 122°34'0 0.1
2018-Jun-07 00:59N 48°31' W 122°34'0 0.1
2018-Jun-07 00:29N 48°31' W 122°34'0 0.0
2018-Jun-06 23:59N 48°31' W 122°34'0 0.0
2018-Jun-06 23:26N 48°31' W 122°34'0 0.1
2018-Jun-06 22:59N 48°31' W 122°34'0 0.0
2018-Jun-06 19:20N 48°31' W 122°34'0 0.0
2018-Jun-06 18:59N 48°31' W 122°34'0 0.0
2018-Jun-06 18:29N 48°31' W 122°34'0 0.2
2018-Jun-06 17:59N 48°31' W 122°34'0 0.1
2018-Jun-06 17:26N 48°31' W 122°34'0 0.1
2018-Jun-06 16:59N 48°31' W 122°34'0 0.0
2018-Jun-06 16:29N 48°31' W 122°34'0 0.0
2018-Jun-06 14:59N 48°31' W 122°34'0 0.1
2018-Jun-06 14:29N 48°31' W 122°34'0 0.0
2018-Jun-06 13:56N 48°31' W 122°34'0 0.0
2018-Jun-06 13:26N 48°31' W 122°34'0 0.0
2018-Jun-06 12:56N 48°31' W 122°34'0 0.0
2018-Jun-06 12:29N 48°31' W 122°34'0 0.0
2018-Jun-06 11:59N 48°31' W 122°34'0 0.0
2018-Jun-06 11:29N 48°31' W 122°34'0 0.1
2018-Jun-06 10:59N 48°31' W 122°34'0 0.1
2018-Jun-06 10:29N 48°31' W 122°34'0 0.1
2018-Jun-06 09:56N 48°31' W 122°34'0 0.0
2018-Jun-06 09:20N 48°31' W 122°34'0 0.0
2018-Jun-06 08:47N 48°31' W 122°34'0 0.2
2018-Jun-06 08:29N 48°31' W 122°34'0 0.2
2018-Jun-06 07:47N 48°31' W 122°34'0 0.2
2018-Jun-06 07:29N 48°31' W 122°34'0 0.2
2018-Jun-06 06:44N 48°31' W 122°34'0 0.2
2018-Jun-06 06:29N 48°31' W 122°34'0 0.2
2018-Jun-06 05:56N 48°31' W 122°34'0 0.2
2018-Jun-06 05:29N 48°31' W 122°34'0 0.2
2018-Jun-06 04:47N 48°31' W 122°34'0 0.3
2018-Jun-06 04:20N 48°31' W 122°34'0 0.3
2018-Jun-06 03:59N 48°31' W 122°34'0 0.0
2018-Jun-06 02:41N 48°31' W 122°34'0 0.0
2018-Jun-06 02:20N 48°31' W 122°34'0 0.0
2018-Jun-06 01:59N 48°31' W 122°34'0 0.1
2018-Jun-06 01:29N 48°31' W 122°34'0 0.1
2018-Jun-06 00:59N 48°31' W 122°34'0 0.1
2018-Jun-06 00:29N 48°31' W 122°34'0 0.0
2018-Jun-05 23:59N 48°31' W 122°34'0 0.0
2018-Jun-05 23:29N 48°31' W 122°34'0 0.0
2018-Jun-05 22:59N 48°31' W 122°34'0 0.0
2018-Jun-05 22:29N 48°31' W 122°34'0 0.0
2018-Jun-05 21:59N 48°31' W 122°34'0 0.1
2018-Jun-05 21:29N 48°31' W 122°34'0 0.0
2018-Jun-05 20:59N 48°31' W 122°34'0 0.0
2018-Jun-05 20:29N 48°31' W 122°34'0 0.0
2018-Jun-05 19:59N 48°31' W 122°34'0 0.1
2018-Jun-05 19:29N 48°31' W 122°34'0 0.2
2018-Jun-05 18:59N 48°31' W 122°34'0 0.1
2018-Jun-05 18:29N 48°31' W 122°34'0 0.1
2018-Jun-05 17:59N 48°31' W 122°34'0 0.0
2018-Jun-05 17:29N 48°31' W 122°34'0 0.0
2018-Jun-05 16:59N 48°31' W 122°34'0 0.0
2018-Jun-05 16:29N 48°31' W 122°34'0 0.0
2018-Jun-05 15:59N 48°31' W 122°34'0 0.0
2018-Jun-05 14:50N 48°31' W 122°34'0 0.0
2018-Jun-05 14:20N 48°31' W 122°34'0 0.1
2018-Jun-05 13:56N 48°31' W 122°34'0 0.1
2018-Jun-05 13:29N 48°31' W 122°34'0 0.0
2018-Jun-05 12:50N 48°31' W 122°34'0 0.1
2018-Jun-05 12:20N 48°31' W 122°34'0 0.0
2018-Jun-05 11:56N 48°31' W 122°34'0 0.0
2018-Jun-05 11:26N 48°31' W 122°34'0 0.0
2018-Jun-05 10:50N 48°31' W 122°34'0 0.1
2018-Jun-05 10:29N 48°31' W 122°34'0 0.1
2018-Jun-05 09:59N 48°31' W 122°34'0 0.0
2018-Jun-05 09:29N 48°31' W 122°34'0 0.1
2018-Jun-05 08:56N 48°31' W 122°34'0 0.2
2018-Jun-05 08:08N 48°31' W 122°34'0 0.2
2018-Jun-05 07:56N 48°31' W 122°34'0 0.1
2018-Jun-05 06:38N 48°31' W 122°34'0 0.1
2018-Jun-05 06:26N 48°31' W 122°34'0 0.1
2018-Jun-05 05:38N 48°31' W 122°34'0 0.1
2018-Jun-05 05:29N 48°31' W 122°34'0 0.1
2018-Jun-05 04:56N 48°31' W 122°34'0 0.2
2018-Jun-05 04:14N 48°31' W 122°34'0 0.0
2018-Jun-05 03:56N 48°31' W 122°34'0 0.1
2018-Jun-05 03:29N 48°31' W 122°34'0 0.2
2018-Jun-05 02:59N 48°31' W 122°34'0 0.1
2018-Jun-05 02:29N 48°31' W 122°34'0 0.1
2018-Jun-05 01:56N 48°31' W 122°33'0 0.0
2018-Jun-05 01:29N 48°31' W 122°33'0 0.0
2018-Jun-05 00:56N 48°31' W 122°33'0 0.0
2018-Jun-05 00:29N 48°31' W 122°33'0 0.1
2018-Jun-04 23:59N 48°31' W 122°34'0 0.0
2018-Jun-04 23:29N 48°31' W 122°34'0 0.1
2018-Jun-04 22:44N 48°31' W 122°34'0 0.0
2018-Jun-04 22:29N 48°31' W 122°34'0 0.1
2018-Jun-04 21:50N 48°31' W 122°34'0 0.0
2018-Jun-04 21:20N 48°31' W 122°34'0 0.1
2018-Jun-04 20:56N 48°31' W 122°34'0 0.1
2018-Jun-04 20:20N 48°31' W 122°34'0 0.0
2018-Jun-04 19:59N 48°31' W 122°34'0 0.1
2018-Jun-04 19:17N 48°31' W 122°34'0 0.0
2018-Jun-04 18:56N 48°31' W 122°34'0 0.1
2018-Jun-04 18:29N 48°31' W 122°34'0 0.0
2018-Jun-04 17:59N 48°31' W 122°34'0 0.0
2018-Jun-04 17:29N 48°31' W 122°34'0 0.0
2018-Jun-04 16:59N 48°31' W 122°34'0 0.2
2018-Jun-04 16:29N 48°31' W 122°34'0 0.0
2018-Jun-04 15:59N 48°31' W 122°34'0 0.1
2018-Jun-04 15:29N 48°31' W 122°34'0 0.1
2018-Jun-04 14:59N 48°31' W 122°34'0 0.0
2018-Jun-04 14:29N 48°31' W 122°34'0 0.0
2018-Jun-04 13:59N 48°31' W 122°34'0 0.1
2018-Jun-04 13:29N 48°31' W 122°34'0 0.0
2018-Jun-04 12:59N 48°31' W 122°34'0 0.0
2018-Jun-04 12:29N 48°31' W 122°34'0 0.0
2018-Jun-04 11:59N 48°31' W 122°34'0 0.0
2018-Jun-04 11:29N 48°31' W 122°34'0 0.0
2018-Jun-04 10:59N 48°31' W 122°34'0 0.2
2018-Jun-04 10:29N 48°31' W 122°34'0 0.2
2018-Jun-04 09:59N 48°31' W 122°34'0 0.2
2018-Jun-04 09:29N 48°31' W 122°34'0 0.2
2018-Jun-04 08:59N 48°31' W 122°34'0 0.1
2018-Jun-04 08:29N 48°31' W 122°34'0 0.0
2018-Jun-04 07:59N 48°31' W 122°34'  
Track history (hours):
 
Tides and Currents Weather Stations Pressure Air Temp Water Temp Dewpoint Dewpoint Depression Visibility Wind Speed Wind Dir Waves Ship Positions

Florida

Owner: Crowley Petroleum Services, Inc., Jacksonville, FL. More information available from US FCC via Universal Licensing System and Coast Guard Vessel Documentation Center.

Last reported at 2018-Jun-14 07:29 UTC. Time now 2018-Jun-17 22:10 UTC.
Position N 48°29' W 126°26'.

Length 182 m; draft 11.4 m.

Type: Tanker. MMSI: 366855000.

Date/timePositionNaut miles runAvg speedWind from/ knotsBaromVisibWave heightAir tempDewpointWater temp
2018-Jun-14 07:29N 48°29' W 126°26'714.2
2018-Jun-14 07:00N 48°29' W 126°16'714.0
2018-Jun-14 06:30N 48°29' W 126°05'714.0
2018-Jun-14 06:00N 48°30' W 125°55'713.8
2018-Jun-14 05:30N 48°30' W 125°44'713.8
2018-Jun-14 05:00N 48°30' W 125°34'714.3
2018-Jun-14 04:30N 48°31' W 125°23'714.6
2018-Jun-14 04:00N 48°31' W 125°12'715.0
2018-Jun-14 03:30N 48°31' W 125°01'815.2
2018-Jun-14 03:00N 48°31' W 124°49'714.5
2018-Jun-14 02:30N 48°29' W 124°39'714.6
2018-Jun-14 02:00N 48°27' W 124°28'714.1
2018-Jun-14 01:30N 48°24' W 124°19'713.4
2018-Jun-14 01:00N 48°21' W 124°09'713.1
2018-Jun-14 00:30N 48°19' W 124°00'712.8
2018-Jun-13 23:59N 48°17' W 123°51'30 9.4
2018-Jun-13 20:50N 48°17' W 123°06'511.2
2018-Jun-13 20:26N 48°19' W 123°01'512.1
2018-Jun-13 20:00N 48°22' W 122°54'510.4
2018-Jun-13 19:29N 48°25' W 122°47'510.8
2018-Jun-13 19:00N 48°30' W 122°44'510.3
2018-Jun-13 18:30N 48°34' W 122°40'4 7.9
2018-Jun-13 18:00N 48°37' W 122°36'1 1.9
2018-Jun-13 17:30N 48°37' W 122°35'1 2.5
2018-Jun-13 17:00N 48°38' W 122°33'1 2.8
2018-Jun-13 16:30N 48°37' W 122°35'3 5.7
2018-Jun-13 16:00N 48°34' W 122°35'3 5.9
2018-Jun-13 15:30N 48°31' W 122°34'0 0.6
2018-Jun-13 14:58N 48°31' W 122°34'0 0.0
2018-Jun-13 14:28N 48°31' W 122°34'0 0.0
2018-Jun-13 13:58N 48°31' W 122°34'0 0.0
2018-Jun-13 13:28N 48°31' W 122°34'0 0.0
2018-Jun-13 12:58N 48°31' W 122°34'0 0.0
2018-Jun-13 12:28N 48°31' W 122°34'0 0.0
2018-Jun-13 11:58N 48°31' W 122°34'0 0.0
2018-Jun-13 11:25N 48°31' W 122°34'0 0.0
2018-Jun-13 10:58N 48°31' W 122°34'0 0.0
2018-Jun-13 10:28N 48°31' W 122°34'0 0.0
2018-Jun-13 09:58N 48°31' W 122°34'0 0.0
2018-Jun-13 09:28N 48°31' W 122°34'0 0.0
2018-Jun-13 08:58N 48°31' W 122°34'0 0.0
2018-Jun-13 08:28N 48°31' W 122°34'0 0.0
2018-Jun-13 07:58N 48°31' W 122°34'0 0.0
2018-Jun-13 07:28N 48°31' W 122°34'0 0.0
2018-Jun-13 06:58N 48°31' W 122°34'0 0.0
2018-Jun-13 06:28N 48°31' W 122°34'0 0.0
2018-Jun-13 05:58N 48°31' W 122°34'0 0.0
2018-Jun-13 05:28N 48°31' W 122°34'0 0.0
2018-Jun-13 04:58N 48°31' W 122°34'0 0.0
2018-Jun-13 04:28N 48°31' W 122°34'0 0.0
2018-Jun-13 03:58N 48°31' W 122°34'0 0.0
2018-Jun-13 03:28N 48°31' W 122°34'0 0.0
2018-Jun-13 02:58N 48°31' W 122°34'0 0.0
2018-Jun-13 02:28N 48°31' W 122°34'0 0.0
2018-Jun-13 01:58N 48°31' W 122°34'0 0.0
2018-Jun-13 01:28N 48°31' W 122°34'0 0.0
2018-Jun-13 00:58N 48°31' W 122°34'0 0.0
2018-Jun-13 00:28N 48°31' W 122°34'0 0.0
2018-Jun-12 23:58N 48°31' W 122°34'0 0.0
2018-Jun-12 23:28N 48°31' W 122°34'0 0.0
2018-Jun-12 22:58N 48°31' W 122°34'0 0.0
2018-Jun-12 22:28N 48°31' W 122°34'0 0.0
2018-Jun-12 21:58N 48°31' W 122°34'0 0.0
2018-Jun-12 21:28N 48°31' W 122°34'0 0.0
2018-Jun-12 20:58N 48°31' W 122°34'0 0.0
2018-Jun-12 20:28N 48°31' W 122°34'0 0.0
2018-Jun-12 19:58N 48°31' W 122°34'0 0.0
2018-Jun-12 19:28N 48°31' W 122°34'0 0.0
2018-Jun-12 18:58N 48°31' W 122°34'0 0.0
2018-Jun-12 18:28N 48°31' W 122°34'0 0.0
2018-Jun-12 17:58N 48°31' W 122°34'0 0.0
2018-Jun-12 17:28N 48°31' W 122°34'0 0.0
2018-Jun-12 16:58N 48°31' W 122°34'0 0.0
2018-Jun-12 16:25N 48°31' W 122°34'0 0.0
2018-Jun-12 15:58N 48°31' W 122°34'0 0.0
2018-Jun-12 15:28N 48°31' W 122°34'0 0.0
2018-Jun-12 14:58N 48°31' W 122°34'0 0.0
2018-Jun-12 14:28N 48°31' W 122°34'0 0.0
2018-Jun-12 13:55N 48°31' W 122°34'0 0.0
2018-Jun-12 13:28N 48°31' W 122°34'0 0.0
2018-Jun-12 12:58N 48°31' W 122°34'0 0.0
2018-Jun-12 12:28N 48°31' W 122°34'0 0.0
2018-Jun-12 11:58N 48°31' W 122°34'0 0.0
2018-Jun-12 11:28N 48°31' W 122°34'0 0.0
2018-Jun-12 10:58N 48°31' W 122°34'0 0.0
2018-Jun-12 10:28N 48°31' W 122°34'0 0.0
2018-Jun-12 09:58N 48°31' W 122°34'0 0.0
2018-Jun-12 09:28N 48°31' W 122°34'0 0.0
2018-Jun-12 08:58N 48°31' W 122°34'0 0.0
2018-Jun-12 08:28N 48°31' W 122°34'0 0.0
2018-Jun-12 07:58N 48°31' W 122°34'0 0.0
2018-Jun-12 07:28N 48°31' W 122°34'0 0.0
2018-Jun-12 06:58N 48°31' W 122°34'0 0.0
2018-Jun-12 06:28N 48°31' W 122°34'0 0.0
2018-Jun-12 05:58N 48°31' W 122°34'0 0.0
2018-Jun-12 05:28N 48°31' W 122°34'0 0.0
2018-Jun-12 04:58N 48°31' W 122°34'0 0.0
2018-Jun-12 04:28N 48°31' W 122°34'0 0.0
2018-Jun-12 03:58N 48°31' W 122°34'0 0.0
2018-Jun-12 03:25N 48°31' W 122°34'0 0.3
2018-Jun-12 03:00N 48°31' W 122°34'1 1.1
2018-Jun-12 02:30N 48°31' W 122°34'1 1.0
2018-Jun-12 02:00N 48°31' W 122°33'0 0.0
2018-Jun-12 01:30N 48°31' W 122°33'0 0.1
2018-Jun-12 01:00N 48°31' W 122°33'0 0.0
2018-Jun-12 00:30N 48°31' W 122°33'0 0.1
2018-Jun-12 00:00N 48°31' W 122°33'0 0.1
2018-Jun-11 23:30N 48°31' W 122°33'0 0.0
2018-Jun-11 23:00N 48°31' W 122°33'0 0.0
2018-Jun-11 22:30N 48°31' W 122°33'0 0.2
2018-Jun-11 22:00N 48°31' W 122°34'0 0.1
2018-Jun-11 21:30N 48°31' W 122°34'0 0.0
2018-Jun-11 21:00N 48°31' W 122°34'0 0.0
2018-Jun-11 20:30N 48°31' W 122°34'0 0.1
2018-Jun-11 20:00N 48°31' W 122°34'0 0.1
2018-Jun-11 19:30N 48°31' W 122°34'0 0.0
2018-Jun-11 19:00N 48°31' W 122°34'0 0.1
2018-Jun-11 18:30N 48°31' W 122°34'0 0.0
2018-Jun-11 18:00N 48°31' W 122°34'0 0.0
2018-Jun-11 17:30N 48°31' W 122°34'0 0.1
2018-Jun-11 17:00N 48°31' W 122°34'0 0.0
2018-Jun-11 16:30N 48°31' W 122°34'0 0.0
2018-Jun-11 16:00N 48°31' W 122°34'0 0.1
2018-Jun-11 15:30N 48°31' W 122°34'0 0.0
2018-Jun-11 14:54N 48°31' W 122°34'0 0.0
2018-Jun-11 14:30N 48°31' W 122°34'0 0.0
2018-Jun-11 14:00N 48°31' W 122°34'0 0.1
2018-Jun-11 13:30N 48°31' W 122°34'0 0.1
2018-Jun-11 13:00N 48°31' W 122°34'0 0.1
2018-Jun-11 12:30N 48°31' W 122°34'0 0.1
2018-Jun-11 12:00N 48°31' W 122°34'0 0.0
2018-Jun-11 11:30N 48°31' W 122°34'0 0.0
2018-Jun-11 11:00N 48°31' W 122°34'0 0.0
2018-Jun-11 10:30N 48°31' W 122°34'0 0.1
2018-Jun-11 10:00N 48°31' W 122°34'0 0.1
2018-Jun-11 09:30N 48°31' W 122°34'0 0.0
2018-Jun-11 09:00N 48°31' W 122°34'0 0.0
2018-Jun-11 08:30N 48°31' W 122°34'0 0.0
2018-Jun-11 08:00N 48°31' W 122°34'0 0.0
2018-Jun-11 07:30N 48°31' W 122°34'0 0.1
2018-Jun-11 07:00N 48°31' W 122°34'0 0.0
2018-Jun-11 06:30N 48°31' W 122°34'0 0.1
2018-Jun-11 06:00N 48°31' W 122°34'0 0.0
2018-Jun-11 05:30N 48°31' W 122°34'0 0.0
2018-Jun-11 05:00N 48°31' W 122°34'0 0.1
2018-Jun-11 04:30N 48°31' W 122°34'0 0.0
2018-Jun-11 04:00N 48°31' W 122°34'0 0.0
2018-Jun-11 03:30N 48°31' W 122°34'0 0.0
2018-Jun-11 03:00N 48°31' W 122°34'0 0.2
2018-Jun-11 02:30N 48°31' W 122°33'0 0.1
2018-Jun-11 02:00N 48°31' W 122°34'0 0.1
2018-Jun-11 01:30N 48°31' W 122°34'0 0.2
2018-Jun-11 01:00N 48°31' W 122°33'0 0.0
2018-Jun-11 00:30N 48°31' W 122°33'0 0.0
2018-Jun-11 00:00N 48°31' W 122°33'0 0.1
2018-Jun-10 23:30N 48°31' W 122°33'0 0.0
2018-Jun-10 23:00N 48°31' W 122°33'0 0.3
2018-Jun-10 22:30N 48°31' W 122°34'0 0.1
2018-Jun-10 22:00N 48°31' W 122°34'0 0.1
2018-Jun-10 21:30N 48°31' W 122°34'0 0.1
2018-Jun-10 21:00N 48°31' W 122°34'0 0.1
2018-Jun-10 20:30N 48°31' W 122°33'0 0.1
2018-Jun-10 20:00N 48°31' W 122°34'0 0.1
2018-Jun-10 19:30N 48°31' W 122°34'0 0.1
2018-Jun-10 19:00N 48°31' W 122°34'0 0.1
2018-Jun-10 18:30N 48°31' W 122°34'0 0.0
2018-Jun-10 18:00N 48°31' W 122°34'0 0.1
2018-Jun-10 17:30N 48°31' W 122°34'0 0.0
2018-Jun-10 17:00N 48°31' W 122°34'0 0.0
2018-Jun-10 16:30N 48°31' W 122°34'0 0.1
2018-Jun-10 16:00N 48°31' W 122°34'0 0.0
2018-Jun-10 15:30N 48°31' W 122°34'0 0.0
2018-Jun-10 15:00N 48°31' W 122°34'0 0.0
2018-Jun-10 14:30N 48°31' W 122°34'0 0.0
2018-Jun-10 13:30N 48°31' W 122°34'0 0.1
2018-Jun-10 13:00N 48°31' W 122°34'0 0.0
2018-Jun-10 12:30N 48°31' W 122°34'0 0.1
2018-Jun-10 12:00N 48°31' W 122°34'0 0.1
2018-Jun-10 11:30N 48°31' W 122°34'0 0.3
2018-Jun-10 11:00N 48°31' W 122°33'0 0.1
2018-Jun-10 10:30N 48°31' W 122°33'0 0.0
2018-Jun-10 10:00N 48°31' W 122°33'0 0.0
2018-Jun-10 09:30N 48°31' W 122°33'0 0.1
2018-Jun-10 09:00N 48°31' W 122°33'0 0.0
2018-Jun-10 08:30N 48°31' W 122°33'0 0.0
2018-Jun-10 08:00N 48°31' W 122°33'0 0.0
2018-Jun-10 07:30N 48°31' W 122°33'0 0.0
2018-Jun-10 07:00N 48°31' W 122°33'0 0.0
2018-Jun-10 06:30N 48°31' W 122°33'0 0.1
2018-Jun-10 06:00N 48°31' W 122°33'0 0.0
2018-Jun-10 05:30N 48°31' W 122°33'0 0.0
2018-Jun-10 05:00N 48°31' W 122°33'0 0.1
2018-Jun-10 04:30N 48°31' W 122°33'0 0.1
2018-Jun-10 04:00N 48°31' W 122°33'0 0.0
2018-Jun-10 03:30N 48°31' W 122°33'0 0.1
2018-Jun-10 03:00N 48°31' W 122°34'0 0.0
2018-Jun-10 02:30N 48°31' W 122°34'0 0.1
2018-Jun-10 02:00N 48°31' W 122°34'0 0.1
2018-Jun-10 01:30N 48°31' W 122°34'0 0.1
2018-Jun-10 01:00N 48°31' W 122°33'0 0.0
2018-Jun-10 00:30N 48°31' W 122°33'0 0.0
2018-Jun-10 00:00N 48°31' W 122°33'0 0.0
2018-Jun-09 23:30N 48°31' W 122°33'0 0.0
2018-Jun-09 23:00N 48°31' W 122°33'0 0.1
2018-Jun-09 22:30N 48°31' W 122°34'0 0.1
2018-Jun-09 22:00N 48°31' W 122°33'0 0.0
2018-Jun-09 21:30N 48°31' W 122°33'0 0.0
2018-Jun-09 21:00N 48°31' W 122°33'0 0.1
2018-Jun-09 20:30N 48°31' W 122°33'0 0.0
2018-Jun-09 20:00N 48°31' W 122°33'0 0.0
2018-Jun-09 19:30N 48°31' W 122°33'0 0.0
2018-Jun-09 19:00N 48°31' W 122°33'0 0.2
2018-Jun-09 18:30N 48°31' W 122°34'0 0.2
2018-Jun-09 18:00N 48°31' W 122°34'0 0.0
2018-Jun-09 17:30N 48°31' W 122°34'0 0.1
2018-Jun-09 17:00N 48°31' W 122°34'0 0.0
2018-Jun-09 16:30N 48°31' W 122°34'0 0.1
2018-Jun-09 16:00N 48°31' W 122°34'0 0.0
2018-Jun-09 15:00N 48°31' W 122°34'0 0.0
2018-Jun-09 14:30N 48°31' W 122°34'0 0.0
2018-Jun-09 14:00N 48°31' W 122°34'0 0.1
2018-Jun-09 13:30N 48°31' W 122°34'0 0.1
2018-Jun-09 13:00N 48°31' W 122°34'0 0.1
2018-Jun-09 12:30N 48°31' W 122°34'0 0.0
2018-Jun-09 12:00N 48°31' W 122°34'0 0.0
2018-Jun-09 11:30N 48°31' W 122°34'0 0.1
2018-Jun-09 11:00N 48°31' W 122°34'0 0.0
2018-Jun-09 10:30N 48°31' W 122°34'0 0.1
2018-Jun-09 10:00N 48°31' W 122°34'0 0.1
2018-Jun-09 09:30N 48°31' W 122°34'0 0.1
2018-Jun-09 09:00N 48°31' W 122°34'0 0.2
2018-Jun-09 08:30N 48°31' W 122°34'0 0.2
2018-Jun-09 08:00N 48°31' W 122°34'0 0.1
2018-Jun-09 07:30N 48°31' W 122°33'0 0.0
2018-Jun-09 06:57N 48°31' W 122°33'0 0.1
2018-Jun-09 06:30N 48°31' W 122°33'0 0.0
2018-Jun-09 06:00N 48°31' W 122°33'0 0.0
2018-Jun-09 05:30N 48°31' W 122°33'0 0.1
2018-Jun-09 05:00N 48°31' W 122°34'0 0.1
2018-Jun-09 04:30N 48°31' W 122°34'0 0.1
2018-Jun-09 04:00N 48°31' W 122°34'0 0.1
2018-Jun-09 03:30N 48°31' W 122°34'0 0.1
2018-Jun-09 02:59N 48°31' W 122°34'0 0.1
2018-Jun-09 02:30N 48°31' W 122°34'0 0.0
2018-Jun-09 02:00N 48°31' W 122°34'0 0.0
2018-Jun-09 01:30N 48°31' W 122°34'0 0.0
2018-Jun-09 01:00N 48°31' W 122°34'0 0.2
2018-Jun-09 00:30N 48°31' W 122°34'0 0.2
2018-Jun-09 00:00N 48°31' W 122°34'0 0.1
2018-Jun-08 23:30N 48°31' W 122°34'0 0.0
2018-Jun-08 23:00N 48°31' W 122°34'0 0.0
2018-Jun-08 22:27N 48°31' W 122°34'0 0.1
2018-Jun-08 22:00N 48°31' W 122°34'0 0.1
2018-Jun-08 21:27N 48°31' W 122°34'0 0.0
2018-Jun-08 20:48N 48°31' W 122°34'0 0.0
2018-Jun-08 20:30N 48°31' W 122°34'0 0.0
2018-Jun-08 19:57N 48°31' W 122°34'0 0.0
2018-Jun-08 19:27N 48°31' W 122°34'0 0.0
2018-Jun-08 19:00N 48°31' W 122°34'0 0.1
2018-Jun-08 18:30N 48°31' W 122°34'0 0.0
2018-Jun-08 18:00N 48°31' W 122°34'0 0.0
2018-Jun-08 17:30N 48°31' W 122°34'0 0.1
2018-Jun-08 16:57N 48°31' W 122°34'0 0.0
2018-Jun-08 16:24N 48°31' W 122°34'0 0.1
2018-Jun-08 15:57N 48°31' W 122°34'0 0.1
2018-Jun-08 15:30N 48°31' W 122°34'0 0.0
2018-Jun-08 14:57N 48°31' W 122°34'0 0.0
2018-Jun-08 14:27N 48°31' W 122°34'0 0.0
2018-Jun-08 13:56N 48°31' W 122°34'0 0.0
2018-Jun-08 13:30N 48°31' W 122°34'0 0.0
2018-Jun-08 12:56N 48°31' W 122°34'0 0.0
2018-Jun-08 12:30N 48°31' W 122°34'0 0.1
2018-Jun-08 11:54N 48°31' W 122°34'0 0.0
2018-Jun-08 11:30N 48°31' W 122°34'0 0.1
2018-Jun-08 10:51N 48°31' W 122°34'0 0.0
2018-Jun-08 09:51N 48°31' W 122°34'0 0.0
2018-Jun-08 09:21N 48°31' W 122°34'0 0.0
2018-Jun-08 08:57N 48°31' W 122°34'0 0.0
2018-Jun-08 08:21N 48°31' W 122°34'0 0.0
2018-Jun-08 07:57N 48°31' W 122°34'0 0.0
2018-Jun-08 07:30N 48°31' W 122°34'0 0.0
2018-Jun-08 06:50N 48°31' W 122°34'0 0.0
2018-Jun-08 06:27N 48°31' W 122°34'0 0.3
2018-Jun-08 05:59N 48°31' W 122°34'0 0.1
2018-Jun-08 05:24N 48°31' W 122°34'0 0.1
2018-Jun-08 05:00N 48°31' W 122°34'0 0.1
2018-Jun-08 04:29N 48°31' W 122°34'0 0.1
2018-Jun-08 02:35N 48°31' W 122°34'0 0.1
2018-Jun-08 02:26N 48°31' W 122°34'0 0.0
2018-Jun-08 01:59N 48°31' W 122°34'0 0.1
2018-Jun-08 00:38N 48°31' W 122°34'0 0.0
2018-Jun-08 00:23N 48°31' W 122°34'0 0.1
2018-Jun-07 23:30N 48°31' W 122°34'0 0.1
2018-Jun-07 22:59N 48°31' W 122°34'0 0.0
2018-Jun-07 22:30N 48°31' W 122°34'0 0.0
2018-Jun-07 22:00N 48°31' W 122°34'0 0.1
2018-Jun-07 21:29N 48°31' W 122°34'0 0.2
2018-Jun-07 21:00N 48°31' W 122°34'0 0.1
2018-Jun-07 20:30N 48°31' W 122°34'0 0.0
2018-Jun-07 20:00N 48°31' W 122°34'0 0.0
2018-Jun-07 19:30N 48°31' W 122°34'0 0.0
2018-Jun-07 19:00N 48°31' W 122°34'0 0.2
2018-Jun-07 18:30N 48°31' W 122°34'0 0.3
2018-Jun-07 18:00N 48°31' W 122°34'0 0.0
2018-Jun-07 17:29N 48°31' W 122°34'0 0.1
2018-Jun-07 16:59N 48°31' W 122°34'0 0.0
2018-Jun-07 16:29N 48°31' W 122°34'0 0.0
2018-Jun-07 15:59N 48°31' W 122°34'0 0.0
2018-Jun-07 15:29N 48°31' W 122°34'0 0.0
2018-Jun-07 14:59N 48°31' W 122°34'0 0.0
2018-Jun-07 14:30N 48°31' W 122°34'0 0.0
2018-Jun-07 14:00N 48°31' W 122°34'0 0.1
2018-Jun-07 13:30N 48°31' W 122°34'0 0.0
2018-Jun-07 12:59N 48°31' W 122°34'0 0.0
2018-Jun-07 12:29N 48°31' W 122°34'0 0.0
2018-Jun-07 12:00N 48°31' W 122°34'0 0.0
2018-Jun-07 11:29N 48°31' W 122°34'0 0.1
2018-Jun-07 11:00N 48°31' W 122°34'0 0.1
2018-Jun-07 10:30N 48°31' W 122°34'0 0.2
2018-Jun-07 09:59N 48°31' W 122°34'0 0.2
2018-Jun-07 09:29N 48°31' W 122°34'0 0.1
2018-Jun-07 08:59N 48°31' W 122°34'0 0.1
2018-Jun-07 08:29N 48°31' W 122°34'0 0.1
2018-Jun-07 07:59N 48°31' W 122°34'0 0.0
2018-Jun-07 07:29N 48°31' W 122°34'0 0.1
2018-Jun-07 06:59N 48°31' W 122°34'0 0.1
2018-Jun-07 06:29N 48°31' W 122°34'0 0.1
2018-Jun-07 05:59N 48°31' W 122°34'0 0.3
2018-Jun-07 05:29N 48°31' W 122°34'0 0.0
2018-Jun-07 05:00N 48°31' W 122°34'0 0.0
2018-Jun-07 04:29N 48°31' W 122°34'0 0.0
2018-Jun-07 03:59N 48°31' W 122°34'0 0.0
2018-Jun-07 03:29N 48°31' W 122°34'0 0.1
2018-Jun-07 02:59N 48°31' W 122°34'0 0.0
2018-Jun-07 02:30N 48°31' W 122°34'0 0.1
2018-Jun-07 01:59N 48°31' W 122°34'0 0.0
2018-Jun-07 01:29N 48°31' W 122°34'0 0.1
2018-Jun-07 00:59N 48°31' W 122°34'0 0.1
2018-Jun-07 00:29N 48°31' W 122°34'0 0.0
2018-Jun-06 23:59N 48°31' W 122°34'0 0.0
2018-Jun-06 23:26N 48°31' W 122°34'0 0.1
2018-Jun-06 22:59N 48°31' W 122°34'0 0.0
2018-Jun-06 19:20N 48°31' W 122°34'0 0.0
2018-Jun-06 18:59N 48°31' W 122°34'0 0.0
2018-Jun-06 18:29N 48°31' W 122°34'0 0.2
2018-Jun-06 17:59N 48°31' W 122°34'0 0.1
2018-Jun-06 17:26N 48°31' W 122°34'0 0.1
2018-Jun-06 16:59N 48°31' W 122°34'0 0.0
2018-Jun-06 16:29N 48°31' W 122°34'0 0.0
2018-Jun-06 14:59N 48°31' W 122°34'0 0.1
2018-Jun-06 14:29N 48°31' W 122°34'0 0.0
2018-Jun-06 13:56N 48°31' W 122°34'0 0.0
2018-Jun-06 13:26N 48°31' W 122°34'0 0.0
2018-Jun-06 12:56N 48°31' W 122°34'0 0.0
2018-Jun-06 12:29N 48°31' W 122°34'0 0.0
2018-Jun-06 11:59N 48°31' W 122°34'0 0.0
2018-Jun-06 11:29N 48°31' W 122°34'0 0.1
2018-Jun-06 10:59N 48°31' W 122°34'0 0.1
2018-Jun-06 10:29N 48°31' W 122°34'0 0.1
2018-Jun-06 09:56N 48°31' W 122°34'0 0.0
2018-Jun-06 09:20N 48°31' W 122°34'0 0.0
2018-Jun-06 08:47N 48°31' W 122°34'0 0.2
2018-Jun-06 08:29N 48°31' W 122°34'0 0.2
2018-Jun-06 07:47N 48°31' W 122°34'0 0.2
2018-Jun-06 07:29N 48°31' W 122°34'0 0.2
2018-Jun-06 06:44N 48°31' W 122°34'0 0.2
2018-Jun-06 06:29N 48°31' W 122°34'0 0.2
2018-Jun-06 05:56N 48°31' W 122°34'0 0.2
2018-Jun-06 05:29N 48°31' W 122°34'0 0.2
2018-Jun-06 04:47N 48°31' W 122°34'0 0.3
2018-Jun-06 04:20N 48°31' W 122°34'0 0.3
2018-Jun-06 03:59N 48°31' W 122°34'0 0.0
2018-Jun-06 02:41N 48°31' W 122°34'0 0.0
2018-Jun-06 02:20N 48°31' W 122°34'0 0.0
2018-Jun-06 01:59N 48°31' W 122°34'0 0.1
2018-Jun-06 01:29N 48°31' W 122°34'0 0.1
2018-Jun-06 00:59N 48°31' W 122°34'0 0.1
2018-Jun-06 00:29N 48°31' W 122°34'0 0.0
2018-Jun-05 23:59N 48°31' W 122°34'0 0.0
2018-Jun-05 23:29N 48°31' W 122°34'0 0.0
2018-Jun-05 22:59N 48°31' W 122°34'0 0.0
2018-Jun-05 22:29N 48°31' W 122°34'0 0.0
2018-Jun-05 21:59N 48°31' W 122°34'0 0.1
2018-Jun-05 21:29N 48°31' W 122°34'0 0.0
2018-Jun-05 20:59N 48°31' W 122°34'0 0.0
2018-Jun-05 20:29N 48°31' W 122°34'0 0.0
2018-Jun-05 19:59N 48°31' W 122°34'0 0.1
2018-Jun-05 19:29N 48°31' W 122°34'0 0.2
2018-Jun-05 18:59N 48°31' W 122°34'0 0.1
2018-Jun-05 18:29N 48°31' W 122°34'0 0.1
2018-Jun-05 17:59N 48°31' W 122°34'0 0.0
2018-Jun-05 17:29N 48°31' W 122°34'0 0.0
2018-Jun-05 16:59N 48°31' W 122°34'0 0.0
2018-Jun-05 16:29N 48°31' W 122°34'0 0.0
2018-Jun-05 15:59N 48°31' W 122°34'0 0.0
2018-Jun-05 14:50N 48°31' W 122°34'0 0.0
2018-Jun-05 14:20N 48°31' W 122°34'0 0.1
2018-Jun-05 13:56N 48°31' W 122°34'0 0.1
2018-Jun-05 13:29N 48°31' W 122°34'0 0.0
2018-Jun-05 12:50N 48°31' W 122°34'0 0.1
2018-Jun-05 12:20N 48°31' W 122°34'0 0.0
2018-Jun-05 11:56N 48°31' W 122°34'0 0.0
2018-Jun-05 11:26N 48°31' W 122°34'0 0.0
2018-Jun-05 10:50N 48°31' W 122°34'0 0.1
2018-Jun-05 10:29N 48°31' W 122°34'0 0.1
2018-Jun-05 09:59N 48°31' W 122°34'0 0.0
2018-Jun-05 09:29N 48°31' W 122°34'0 0.1
2018-Jun-05 08:56N 48°31' W 122°34'0 0.2
2018-Jun-05 08:08N 48°31' W 122°34'0 0.2
2018-Jun-05 07:56N 48°31' W 122°34'0 0.1
2018-Jun-05 06:38N 48°31' W 122°34'0 0.1
2018-Jun-05 06:26N 48°31' W 122°34'0 0.1
2018-Jun-05 05:38N 48°31' W 122°34'0 0.1
2018-Jun-05 05:29N 48°31' W 122°34'0 0.1
2018-Jun-05 04:56N 48°31' W 122°34'0 0.2
2018-Jun-05 04:14N 48°31' W 122°34'0 0.0
2018-Jun-05 03:56N 48°31' W 122°34'0 0.1
2018-Jun-05 03:29N 48°31' W 122°34'0 0.2
2018-Jun-05 02:59N 48°31' W 122°34'0 0.1
2018-Jun-05 02:29N 48°31' W 122°34'0 0.1
2018-Jun-05 01:56N 48°31' W 122°33'0 0.0
2018-Jun-05 01:29N 48°31' W 122°33'0 0.0
2018-Jun-05 00:56N 48°31' W 122°33'0 0.0
2018-Jun-05 00:29N 48°31' W 122°33'0 0.1
2018-Jun-04 23:59N 48°31' W 122°34'0 0.0
2018-Jun-04 23:29N 48°31' W 122°34'0 0.1
2018-Jun-04 22:44N 48°31' W 122°34'0 0.0
2018-Jun-04 22:29N 48°31' W 122°34'0 0.1
2018-Jun-04 21:50N 48°31' W 122°34'0 0.0
2018-Jun-04 21:20N 48°31' W 122°34'0 0.1
2018-Jun-04 20:56N 48°31' W 122°34'0 0.1
2018-Jun-04 20:20N 48°31' W 122°34'0 0.0
2018-Jun-04 19:59N 48°31' W 122°34'0 0.1
2018-Jun-04 19:17N 48°31' W 122°34'0 0.0
2018-Jun-04 18:56N 48°31' W 122°34'0 0.1
2018-Jun-04 18:29N 48°31' W 122°34'0 0.0
2018-Jun-04 17:59N 48°31' W 122°34'0 0.0
2018-Jun-04 17:29N 48°31' W 122°34'0 0.0
2018-Jun-04 16:59N 48°31' W 122°34'0 0.2
2018-Jun-04 16:29N 48°31' W 122°34'0 0.0
2018-Jun-04 15:59N 48°31' W 122°34'0 0.1
2018-Jun-04 15:29N 48°31' W 122°34'0 0.1
2018-Jun-04 14:59N 48°31' W 122°34'0 0.0
2018-Jun-04 14:29N 48°31' W 122°34'0 0.0
2018-Jun-04 13:59N 48°31' W 122°34'0 0.1
2018-Jun-04 13:29N 48°31' W 122°34'0 0.0
2018-Jun-04 12:59N 48°31' W 122°34'0 0.0
2018-Jun-04 12:29N 48°31' W 122°34'0 0.0
2018-Jun-04 11:59N 48°31' W 122°34'0 0.0
2018-Jun-04 11:29N 48°31' W 122°34'0 0.0
2018-Jun-04 10:59N 48°31' W 122°34'0 0.2
2018-Jun-04 10:29N 48°31' W 122°34'0 0.2
2018-Jun-04 09:59N 48°31' W 122°34'0 0.2
2018-Jun-04 09:29N 48°31' W 122°34'0 0.2
2018-Jun-04 08:59N 48°31' W 122°34'0 0.1
2018-Jun-04 08:29N 48°31' W 122°34'0 0.0
2018-Jun-04 07:59N 48°31' W 122°34'  

Dump ship's entire track history